Time;durP1;ratioP1;P1;durP2;ratioP2;P2;SDS_P1;SDS_P2;PMS_P1;PMS_P2;Temp;Humidity;BMP_temperature;BMP_pressure;BME280_temperature;BME280_humidity;BME280_pressure;Samples;Min_cycle;Max_cycle;Signal;HPM_P1;HPM_P2
2021/05/03 07:31:25;;;;;;;10.20;9.25;;;10.30;99.90;;;;;;5625025;23;20040;-87
2021/05/03 07:33:51;;;;;;;10.70;9.43;;;10.50;99.90;;;;;;4914024;29;20440;-86
2021/05/03 07:36:19;;;;;;;9.82;8.82;;;10.60;99.90;;;;;;4913059;29;20067;-86
2021/05/03 07:38:46;;;;;;;7.95;7.07;;;10.80;99.90;;;;;;4913499;29;20113;-86
2021/05/03 07:41:12;;;;;;;9.82;8.82;;;11.00;99.90;;;;;;4912907;29;20044;-86
2021/05/03 07:43:39;;;;;;;8.98;8.10;;;11.10;99.90;;;;;;4914732;28;20052;-87
2021/05/03 07:46:05;;;;;;;7.85;6.10;;;11.30;99.90;;;;;;4913582;28;20055;-87
2021/05/03 07:48:32;;;;;;;10.73;6.50;;;11.50;99.90;;;;;;4913267;29;20407;-86
2021/05/03 07:50:58;;;;;;;7.22;6.13;;;11.70;99.90;;;;;;4913272;29;20063;-87
2021/05/03 07:53:25;;;;;;;5.55;4.50;;;11.80;99.90;;;;;;4912988;29;20059;-87
2021/05/03 07:55:51;;;;;;;6.57;4.47;;;12.00;99.90;;;;;;4914701;28;20052;-86
2021/05/03 07:58:17;;;;;;;4.03;3.63;;;12.20;99.90;;;;;;4913351;29;20056;-87
2021/05/03 08:00:44;;;;;;;3.42;3.13;;;12.30;99.90;;;;;;4914258;28;20048;-86
2021/05/03 08:03:10;;;;;;;3.10;2.80;;;12.40;99.90;;;;;;4914313;28;20048;-86
2021/05/03 08:05:37;;;;;;;3.72;3.00;;;12.50;99.90;;;;;;4916555;29;20103;-87
2021/05/03 08:08:04;;;;;;;4.00;2.80;;;12.70;99.50;;;;;;4916432;29;20459;-85
2021/05/03 08:10:30;;;;;;;3.58;2.92;;;12.80;99.10;;;;;;4916305;29;20103;-86
2021/05/03 08:12:56;;;;;;;3.30;3.00;;;12.90;98.90;;;;;;4946691;28;20474;-84
2021/05/03 08:15:24;;;;;;;1.75;1.65;;;13.00;98.30;;;;;;4947592;28;20103;-85
2021/05/03 08:17:50;;;;;;;2.97;1.70;;;13.10;97.30;;;;;;4916147;29;20052;-85
2021/05/03 08:20:19;;;;;;;2.50;2.00;;;13.20;97.20;;;;;;4915948;29;20056;-83
2021/05/03 08:22:46;;;;;;;;;;;13.20;96.50;;;;;;4901993;29;20048;-85
2021/05/03 08:25:13;;;;;;;2.38;1.80;;;13.30;96.00;;;;;;4913672;29;19942;-84
2021/05/03 08:27:39;;;;;;;2.30;1.65;;;13.40;96.10;;;;;;4916131;29;20112;-85
2021/05/03 08:30:08;;;;;;;1.70;1.40;;;13.40;95.90;;;;;;4915786;28;20507;-85
2021/05/03 08:32:35;;;;;;;1.40;1.30;;;13.30;95.00;;;;;;4931441;29;20043;-84
2021/05/03 08:35:04;;;;;;;1.65;1.10;;;13.20;94.40;;;;;;4935012;29;20055;-84
2021/05/03 08:37:31;;;;;;;2.35;1.35;;;13.20;94.10;;;;;;4934864;29;20052;-83
2021/05/03 08:39:57;;;;;;;2.58;1.52;;;13.10;94.00;;;;;;4933845;29;20062;-85
2021/05/03 08:42:24;;;;;;;1.15;1.05;;;13.00;93.90;;;;;;4926999;28;20091;-86
2021/05/03 08:44:53;;;;;;;1.45;1.00;;;12.90;93.90;;;;;;4936312;28;20071;-84
2021/05/03 08:47:20;;;;;;;2.10;1.50;;;12.90;93.80;;;;;;4934509;28;20119;-85
2021/05/03 08:49:57;;;;;;;1.98;1.55;;;13.00;93.80;;;;;;4925786;29;20135;-86
2021/05/03 08:52:40;;;;;;;1.95;1.67;;;13.10;93.80;;;;;;4941322;29;20060;-86
2021/05/03 08:55:10;;;;;;;2.00;1.55;;;13.30;93.80;;;;;;4935398;28;20048;-86
2021/05/03 08:57:36;;;;;;;1.70;1.33;;;13.30;93.50;;;;;;4935769;28;20091;-85
2021/05/03 09:00:05;;;;;;;1.98;1.30;;;13.20;93.30;;;;;;4934434;29;20448;-87
2021/05/03 09:02:32;;;;;;;2.38;1.00;;;13.10;93.00;;;;;;4934280;29;20044;-85
2021/05/03 09:04:59;;;;;;;1.73;0.90;;;13.10;92.70;;;;;;4936248;28;20095;-86
2021/05/03 09:07:26;;;;;;;2.95;0.90;;;13.00;92.50;;;;;;4934188;29;20058;-84
2021/05/03 09:09:52;;;;;;;1.25;1.00;;;12.90;92.20;;;;;;4934626;29;20051;-85
2021/05/03 09:12:21;;;;;;;2.50;0.73;;;12.90;92.30;;;;;;4934655;28;20455;-84
2021/05/03 09:15:00;;;;;;;1.65;0.90;;;13.00;91.90;;;;;;4933908;29;20106;-84
2021/05/03 09:17:40;;;;;;;1.92;0.75;;;13.30;91.00;;;;;;4935128;28;20044;-86
2021/05/03 09:20:16;;;;;;;2.30;1.00;;;13.50;90.80;;;;;;4933987;29;20052;-85
2021/05/03 09:22:50;;;;;;;1.55;0.70;;;13.60;90.60;;;;;;4934274;29;20052;-84
2021/05/03 09:25:19;;;;;;;1.75;0.70;;;13.70;90.60;;;;;;4930669;28;20063;-86
2021/05/03 09:27:46;;;;;;;2.10;0.90;;;13.90;90.30;;;;;;4935299;28;20056;-85
2021/05/03 09:30:31;;;;;;;6.90;1.27;;;13.90;89.50;;;;;;4934837;28;20106;-86
2021/05/03 09:33:17;;;;;;;2.28;1.02;;;13.90;90.00;;;;;;4934960;28;20056;-84
2021/05/03 09:35:48;;;;;;;2.25;0.90;;;13.90;90.20;;;;;;4934757;28;20122;-85
2021/05/03 09:38:36;;;;;;;1.88;0.65;;;13.80;90.60;;;;;;4933499;29;20048;-84
2021/05/03 09:41:09;;;;;;;1.25;0.80;;;13.90;90.50;;;;;;4921164;29;20088;-84
2021/05/03 09:43:41;;;;;;;6.78;0.90;;;14.00;90.30;;;;;;4934740;29;20043;-85
2021/05/03 09:46:47;;;;;;;2.28;0.60;;;14.20;90.20;;;;;;4933973;29;20051;-86
2021/05/03 09:49:19;;;;;;;1.98;0.60;;;14.30;89.10;;;;;;4930047;28;20452;-84
2021/05/03 09:52:08;;;;;;;2.63;0.90;;;14.20;89.80;;;;;;4933825;29;20058;-84
2021/05/03 09:54:36;;;;;;;2.28;0.60;;;14.10;87.80;;;;;;4933287;29;20534;-85
2021/05/03 09:57:06;;;;;;;2.70;0.50;;;13.90;89.20;;;;;;4934877;28;20043;-85
2021/05/03 09:59:36;;;;;;;2.20;0.73;;;13.90;89.60;;;;;;4935296;28;20054;-85
2021/05/03 10:02:06;;;;;;;0.93;0.60;;;13.90;90.10;;;;;;4933891;29;20422;-86
2021/05/03 10:04:35;;;;;;;2.35;0.63;;;14.00;90.50;;;;;;4934429;29;20036;-86
2021/05/03 10:07:02;;;;;;;3.38;0.70;;;14.20;90.80;;;;;;4934110;29;20056;-85
2021/05/03 10:09:30;;;;;;;1.10;0.90;;;14.30;90.70;;;;;;4933983;28;20451;-84
2021/05/03 10:11:57;;;;;;;1.05;0.80;;;14.20;90.50;;;;;;4933466;29;20051;-85
2021/05/03 10:14:23;;;;;;;1.42;0.80;;;14.10;90.10;;;;;;4932612;28;20107;-87
2021/05/03 10:16:51;;;;;;;2.60;0.88;;;14.20;90.50;;;;;;4934215;29;20058;-84
2021/05/03 10:19:20;;;;;;;1.97;0.77;;;14.40;90.80;;;;;;4934260;28;20487;-86
2021/05/03 10:21:48;;;;;;;2.30;0.50;;;14.40;90.70;;;;;;4934568;28;20048;-85
2021/05/03 10:24:15;;;;;;;0.75;0.50;;;14.50;90.20;;;;;;4932690;29;20107;-86
2021/05/03 10:26:46;;;;;;;2.78;0.50;;;14.50;90.30;;;;;;4932465;29;20043;-86
2021/05/03 10:29:25;;;;;;;1.20;0.60;;;14.60;90.10;;;;;;4932088;28;20049;-86
2021/05/03 10:32:00;;;;;;;1.35;0.60;;;14.60;89.50;;;;;;4918544;29;20514;-86
2021/05/03 10:34:45;;;;;;;1.15;0.70;;;14.70;89.80;;;;;;4932867;28;20055;-86
2021/05/03 10:37:29;;;;;;;0.77;0.60;;;14.70;88.80;;;;;;4933044;29;20052;-86
2021/05/03 10:40:00;;;;;;;2.72;0.50;;;14.70;89.00;;;;;;4933981;29;20062;-80
2021/05/03 10:42:27;;;;;;;1.13;0.50;;;14.70;89.20;;;;;;4932631;28;20051;-80
2021/05/03 10:45:26;;;;;;;1.35;0.35;;;14.80;88.70;;;;;;4934077;29;20095;-81
2021/05/03 10:47:55;;;;;;;1.95;0.60;;;15.00;89.00;;;;;;4933653;28;20050;-80
2021/05/03 10:50:32;;;;;;;2.28;0.60;;;15.30;88.40;;;;;;4933465;28;20054;-82
2021/05/03 10:53:22;;;;;;;0.30;0.30;;;15.40;87.00;;;;;;4932885;29;20047;-83
2021/05/03 10:55:54;;;;;;;1.23;0.55;;;15.60;85.30;;;;;;4918755;29;20052;-81
2021/05/03 10:58:20;;;;;;;1.30;0.52;;;15.60;85.60;;;;;;4933587;29;20506;-81
2021/05/03 11:01:00;;;;;;;0.47;0.40;;;15.50;85.80;;;;;;4933201;29;20052;-81
2021/05/03 11:03:54;;;;;;;4.07;0.60;;;15.70;86.20;;;;;;4932425;28;20056;-80
2021/05/03 11:06:36;;;;;;;2.20;0.68;;;15.70;86.60;;;;;;4932843;28;20067;-81
2021/05/03 11:09:28;;;;;;;1.60;0.60;;;15.70;83.80;;;;;;4929223;29;20059;-81
2021/05/03 11:12:13;;;;;;;0.82;0.40;;;15.60;85.00;;;;;;4923427;29;20054;-81
2021/05/03 11:15:10;;;;;;;1.42;0.45;;;15.30;85.00;;;;;;4929426;29;20044;-84
2021/05/03 11:17:36;;;;;;;;;;;15.30;85.70;;;;;;4926754;29;20036;-81
2021/05/03 11:23:07;;;;;;;1.70;0.50;;;15.40;86.10;;;;;;4927346;29;20060;-80
2021/05/03 11:25:35;;;;;;;2.72;0.40;;;15.40;83.80;;;;;;4918611;29;20127;-81
2021/05/03 11:28:17;;;;;;;3.38;0.57;;;15.50;85.30;;;;;;4933009;29;20164;-81
2021/05/03 11:30:53;;;;;;;0.68;0.60;;;15.40;85.60;;;;;;4932018;29;20044;-83
2021/05/03 11:33:33;;;;;;;1.67;0.65;;;15.30;85.60;;;;;;4931630;29;20047;-82
2021/05/03 11:36:08;;;;;;;2.55;0.55;;;15.30;84.50;;;;;;4932091;29;20047;-80
2021/05/03 11:39:07;;;;;;;1.10;0.50;;;15.30;85.80;;;;;;4932937;29;20479;-81
2021/05/03 11:44:23;;;;;;;3.33;0.57;;;15.50;86.50;;;;;;4933888;28;20052;-82
2021/05/03 11:46:49;;;;;;;1.10;0.60;;;15.60;86.60;;;;;;4921273;29;20052;-81
2021/05/03 11:49:18;;;;;;;2.72;0.70;;;15.70;87.00;;;;;;4936181;29;20047;-82
2021/05/03 11:51:52;;;;;;;5.15;0.80;;;15.70;86.60;;;;;;4936060;29;20048;-82
2021/05/03 11:54:26;;;;;;;3.47;0.50;;;15.70;85.70;;;;;;4933792;29;20181;-82
2021/05/03 11:57:16;;;;;;;2.58;0.50;;;15.50;83.80;;;;;;4935359;28;20055;-82
2021/05/03 11:59:43;;;;;;;3.33;0.60;;;15.40;84.20;;;;;;4935186;29;20043;-83
2021/05/03 12:02:11;;;;;;;1.48;0.50;;;15.40;84.20;;;;;;4935045;28;20075;-82
2021/05/03 12:04:39;;;;;;;0.98;0.50;;;15.40;83.00;;;;;;4935670;29;20427;-81
2021/05/03 12:07:24;;;;;;;1.98;0.43;;;15.40;82.20;;;;;;4937147;28;20051;-83
2021/05/03 12:10:11;;;;;;;1.15;0.40;;;15.40;82.60;;;;;;4936591;28;20059;-82
2021/05/03 12:12:58;;;;;;;2.17;0.50;;;15.50;84.40;;;;;;4935132;29;20044;-82
2021/05/03 12:15:26;;;;;;;2.15;0.50;;;15.50;83.70;;;;;;4934741;29;20208;-82
2021/05/03 12:17:54;;;;;;;3.38;0.70;;;15.40;85.10;;;;;;4936262;29;20055;-82
2021/05/03 12:20:30;;;;;;;1.77;0.47;;;15.50;86.00;;;;;;4935782;28;20107;-83
2021/05/03 12:22:59;;;;;;;1.73;0.75;;;15.60;85.30;;;;;;4936925;29;20130;-82
2021/05/03 12:25:26;;;;;;;4.18;0.60;;;15.60;86.10;;;;;;4936304;28;20103;-82
2021/05/03 12:27:53;;;;;;;1.77;0.55;;;15.70;86.10;;;;;;4935782;29;20047;-82
2021/05/03 12:30:20;;;;;;;3.30;0.50;;;15.70;83.90;;;;;;4935868;28;20060;-81
2021/05/03 12:32:46;;;;;;;1.95;0.52;;;15.70;85.20;;;;;;4935958;28;20047;-82
2021/05/03 12:35:17;;;;;;;2.50;0.80;;;15.70;85.10;;;;;;4936034;28;20055;-83
2021/05/03 12:37:43;;;;;;;1.40;0.55;;;15.90;84.50;;;;;;4936108;29;20107;-82
2021/05/03 12:40:12;;;;;;;3.08;0.55;;;15.90;85.10;;;;;;4935084;29;20055;-81
2021/05/03 12:42:51;;;;;;;5.40;0.93;;;15.90;85.50;;;;;;4934685;29;20521;-82
2021/05/03 12:45:34;;;;;;;5.55;0.50;;;15.80;85.00;;;;;;4935360;28;20134;-81
2021/05/03 12:56:52;;;;;;;2.80;0.57;;;15.90;84.60;;;;;;4876812;29;20109;-82
2021/05/03 12:59:33;;;;;;;2.03;0.50;;;16.00;85.10;;;;;;4873564;29;20109;-82
2021/05/03 13:05:18;;;;;;;1.85;0.50;;;16.10;84.60;;;;;;4826758;29;20445;-83
2021/05/03 13:08:13;;;;;;;1.88;0.50;;;15.90;82.30;;;;;;4810320;29;20061;-82
2021/05/03 13:11:19;;;;;;;4.47;0.40;;;15.90;83.60;;;;;;4838246;29;20402;-82
2021/05/03 13:25:34;;;;;;;2.00;0.50;;;15.80;85.10;;;;;;4835122;29;20061;-83
2021/05/03 13:30:37;;;;;;;1.73;0.60;;;15.50;84.90;;;;;;4894956;29;20055;-82
2021/05/03 13:33:05;;;;;;;1.52;0.45;;;15.50;85.50;;;;;;4894493;29;20085;-83
2021/05/03 13:35:33;;;;;;;1.48;0.50;;;15.50;85.80;;;;;;4905456;29;20052;-81
2021/05/03 13:38:00;;;;;;;;;;;15.50;86.00;;;;;;4882500;29;20480;-83
2021/05/03 13:40:26;;;;;;;3.00;0.50;;;15.60;86.60;;;;;;4894728;29;20367;-83
2021/05/03 13:42:53;;;;;;;2.97;0.60;;;15.50;86.60;;;;;;4929080;29;20483;-82
2021/05/03 13:45:22;;;;;;;2.67;0.50;;;15.60;87.20;;;;;;4933263;29;20055;-82
2021/05/03 13:47:50;;;;;;;1.85;0.45;;;15.70;87.40;;;;;;4935105;28;20427;-81
2021/05/03 13:50:18;;;;;;;1.73;0.60;;;15.60;87.10;;;;;;4933415;28;20082;-81
2021/05/03 13:52:44;;;;;;;2.55;0.47;;;15.60;86.80;;;;;;4934023;29;20060;-83
2021/05/03 13:55:11;;;;;;;2.35;0.57;;;15.60;87.70;;;;;;4933939;29;20051;-82
2021/05/03 13:57:38;;;;;;;3.85;0.63;;;15.60;87.00;;;;;;4933338;29;20043;-82
2021/05/03 14:00:06;;;;;;;1.60;0.55;;;15.60;86.70;;;;;;4934144;28;20463;-84
2021/05/03 14:02:37;;;;;;;3.33;0.65;;;15.60;86.30;;;;;;4934474;28;20047;-82
2021/05/03 14:05:04;;;;;;;5.03;0.70;;;15.50;87.10;;;;;;4934746;29;20048;-82
2021/05/03 14:07:30;;;;;;;4.57;0.55;;;15.50;86.90;;;;;;4934382;29;20044;-83
2021/05/03 14:09:56;;;;;;;3.25;0.70;;;15.50;87.40;;;;;;4935067;29;20502;-83
2021/05/03 14:12:23;;;;;;;2.13;0.60;;;15.50;88.20;;;;;;4933886;29;20048;-84
2021/05/03 14:14:49;;;;;;;2.13;0.50;;;15.50;87.50;;;;;;4933296;29;20043;-82
2021/05/03 14:17:16;;;;;;;3.00;0.70;;;15.50;88.10;;;;;;4934046;28;20055;-82
2021/05/03 14:19:44;;;;;;;2.65;0.60;;;15.40;87.90;;;;;;4934708;29;20144;-82
2021/05/03 14:22:11;;;;;;;3.45;0.88;;;15.30;88.20;;;;;;4934628;28;20582;-83
2021/05/03 14:24:38;;;;;;;4.63;0.75;;;15.30;89.20;;;;;;4933026;29;20099;-82
2021/05/03 14:27:04;;;;;;;2.80;0.40;;;15.40;88.20;;;;;;4933716;28;20503;-83
2021/05/03 14:32:08;;;;;;;3.95;0.98;;;15.20;88.20;;;;;;4933955;29;20047;-82
2021/05/03 14:34:36;;;;;;;3.15;0.57;;;15.20;89.20;;;;;;4932831;29;20036;-82
2021/05/03 14:37:03;;;;;;;2.63;0.60;;;15.30;89.20;;;;;;4933553;29;20098;-82
2021/05/03 14:39:30;;;;;;;2.83;0.88;;;15.40;89.40;;;;;;4933754;28;20546;-82
2021/05/03 14:41:57;;;;;;;8.60;0.60;;;15.40;89.10;;;;;;4934014;28;20047;-82
2021/05/03 14:44:24;;;;;;;1.83;0.57;;;15.30;89.30;;;;;;4932228;28;20048;-82
2021/05/03 14:46:54;;;;;;;4.40;0.73;;;15.30;89.20;;;;;;4932963;29;20051;-83
2021/05/03 14:52:11;;;;;;;4.50;0.70;;;15.20;89.10;;;;;;4933059;28;20392;-84
2021/05/03 14:54:41;;;;;;;3.83;0.70;;;15.20;90.00;;;;;;4933918;28;20052;-82
2021/05/03 14:57:13;;;;;;;4.25;0.80;;;15.10;90.00;;;;;;4932206;29;20418;-83
2021/05/03 14:59:41;;;;;;;4.38;0.70;;;15.10;90.00;;;;;;4934205;28;20052;-83
2021/05/03 15:02:08;;;;;;;3.42;0.68;;;15.00;90.10;;;;;;4932406;28;20051;-83
2021/05/03 15:04:36;;;;;;;4.43;0.75;;;14.80;90.40;;;;;;4932779;29;20048;-82
2021/05/03 15:07:12;;;;;;;3.30;0.80;;;14.70;90.70;;;;;;4934559;28;20040;-82
2021/05/03 15:09:45;;;;;;;5.55;0.80;;;14.80;90.80;;;;;;4933430;28;20048;-81
2021/05/03 15:12:17;;;;;;;3.63;0.85;;;14.70;90.80;;;;;;4932213;29;20039;-83
2021/05/03 15:22:35;;;;;;;5.60;0.90;;;14.90;91.10;;;;;;4935987;28;20047;-82
2021/05/03 15:25:06;;;;;;;1.50;0.60;;;14.90;91.00;;;;;;4938343;28;20059;-83
2021/05/03 15:27:47;;;;;;;3.38;0.50;;;14.90;90.90;;;;;;4936329;29;20498;-83
2021/05/03 15:35:28;;;;;;;6.07;0.95;;;14.80;91.00;;;;;;4937031;29;20056;-84
2021/05/03 15:37:55;;;;;;;7.88;1.05;;;14.80;90.80;;;;;;4936307;29;20099;-83
2021/05/03 15:40:22;;;;;;;6.07;0.85;;;14.80;90.70;;;;;;4937394;28;20554;-84
2021/05/03 15:42:49;;;;;;;9.32;1.27;;;14.80;90.60;;;;;;4924748;29;20435;-81
2021/05/03 15:45:16;;;;;;;4.35;0.90;;;14.80;90.80;;;;;;4929894;29;20051;-84
2021/05/03 15:47:43;;;;;;;4.90;0.90;;;14.90;91.50;;;;;;4935229;28;20052;-81
2021/05/03 15:50:09;;;;;;;5.25;0.88;;;14.90;91.50;;;;;;4935133;28;20502;-82
2021/05/03 15:52:39;;;;;;;8.65;1.25;;;14.80;91.70;;;;;;4934016;29;20048;-85
2021/05/03 15:55:06;;;;;;;8.55;1.23;;;14.80;91.60;;;;;;4930754;28;20048;-84
2021/05/03 15:57:32;;;;;;;3.00;1.08;;;14.80;91.30;;;;;;4925518;28;20052;-84
2021/05/03 15:59:59;;;;;;;4.68;0.60;;;14.60;91.30;;;;;;4929486;29;20059;-84
2021/05/03 16:02:25;;;;;;;2.15;0.82;;;14.60;91.40;;;;;;4927190;28;20051;-84
2021/05/03 16:04:51;;;;;;;4.35;1.10;;;14.50;91.50;;;;;;4930314;28;20051;-82
2021/05/03 16:07:18;;;;;;;3.25;0.90;;;14.50;91.90;;;;;;4925420;28;20071;-83
2021/05/03 16:09:44;;;;;;;5.53;1.02;;;14.40;92.30;;;;;;4929949;28;20060;-84
2021/05/03 16:12:11;;;;;;;5.63;1.20;;;14.40;92.40;;;;;;4930123;29;20395;-83
2021/05/03 16:14:38;;;;;;;2.78;1.05;;;14.30;92.70;;;;;;4934474;29;20062;-84
2021/05/03 16:17:04;;;;;;;5.50;1.23;;;14.30;92.90;;;;;;4931767;28;20115;-85
2021/05/03 16:19:32;;;;;;;10.05;1.67;;;14.30;93.00;;;;;;4932703;29;20055;-85
2021/05/03 16:22:23;;;;;;;6.32;2.55;;;14.30;92.80;;;;;;4926171;29;20058;-83
2021/05/03 16:24:53;;;;;;;6.50;2.30;;;14.20;92.80;;;;;;4927061;29;20122;-83
2021/05/03 16:27:19;;;;;;;6.18;1.30;;;14.10;93.00;;;;;;4926677;29;20059;-83
2021/05/03 16:29:46;;;;;;;4.38;1.33;;;14.10;93.20;;;;;;4924216;29;20102;-83
2021/05/03 16:32:37;;;;;;;10.57;1.35;;;14.00;93.30;;;;;;4924005;29;20135;-85
2021/05/03 16:35:29;;;;;;;2.75;1.08;;;13.80;93.60;;;;;;4927674;29;20047;-84
2021/05/03 16:38:20;;;;;;;2.47;0.90;;;13.80;93.80;;;;;;4921807;29;20078;-85
2021/05/03 16:41:11;;;;;;;7.70;1.42;;;13.80;94.20;;;;;;4926080;29;20078;-83
2021/05/03 16:44:02;;;;;;;3.25;1.10;;;13.70;94.40;;;;;;4925345;29;20498;-84
2021/05/03 16:46:53;;;;;;;6.05;1.40;;;13.60;94.50;;;;;;4926551;29;20415;-84
2021/05/03 16:49:23;;;;;;;7.72;1.40;;;13.50;94.90;;;;;;4932339;29;20097;-84
2021/05/03 16:51:50;;;;;;;4.05;1.00;;;13.50;95.10;;;;;;4931920;29;20048;-84
2021/05/03 16:54:16;;;;;;;5.30;1.40;;;13.50;94.90;;;;;;4931430;29;20146;-85
2021/05/03 16:57:07;;;;;;;5.63;1.38;;;13.50;94.80;;;;;;4930400;29;20063;-86
2021/05/03 16:59:58;;;;;;;4.25;1.17;;;13.40;94.80;;;;;;4924878;29;20102;-87
2021/05/03 17:02:49;;;;;;;5.72;1.15;;;13.50;94.80;;;;;;4928360;29;20134;-86
2021/05/03 17:05:40;;;;;;;8.07;1.88;;;13.40;94.70;;;;;;4932782;29;20480;-85
2021/05/03 17:08:31;;;;;;;7.78;1.38;;;13.40;94.80;;;;;;4931596;29;20793;-86
2021/05/03 17:11:22;;;;;;;6.82;1.13;;;13.40;94.90;;;;;;4931133;29;20107;-86
2021/05/03 17:14:13;;;;;;;4.47;1.48;;;13.30;95.30;;;;;;4925754;29;20094;-85
2021/05/03 17:17:04;;;;;;;11.88;1.30;;;13.20;95.40;;;;;;4929845;29;20059;-87
2021/05/03 17:19:55;;;;;;;4.90;1.92;;;13.20;95.50;;;;;;4930770;29;20059;-85
2021/05/03 17:22:21;;;;;;;3.58;1.10;;;13.10;95.60;;;;;;4931781;29;20056;-86
2021/05/03 17:24:51;;;;;;;6.60;1.60;;;13.10;95.70;;;;;;4930265;29;20074;-86
2021/05/03 17:27:17;;;;;;;7.00;1.40;;;13.10;95.90;;;;;;4929859;29;20108;-85
2021/05/03 17:29:45;;;;;;;6.25;1.25;;;13.10;96.00;;;;;;4925396;29;20044;-87
2021/05/03 17:32:12;;;;;;;6.10;1.50;;;13.10;96.20;;;;;;4930236;29;20464;-85
2021/05/03 17:34:39;;;;;;;5.43;1.42;;;13.10;96.30;;;;;;4933284;29;20043;-86
2021/05/03 17:37:29;;;;;;;7.90;1.35;;;13.10;96.10;;;;;;4928266;29;20067;-85
2021/05/03 17:40:20;;;;;;;4.60;1.27;;;13.00;96.20;;;;;;4926825;29;20055;-86
2021/05/03 17:42:48;;;;;;;7.70;1.27;;;13.00;96.10;;;;;;4930824;29;20071;-85
2021/05/03 17:45:16;;;;;;;5.18;1.20;;;12.90;96.30;;;;;;4926641;29;20396;-85
2021/05/03 17:47:42;;;;;;;4.55;1.20;;;12.90;96.40;;;;;;4928921;29;20135;-86
2021/05/03 17:50:10;;;;;;;5.53;1.20;;;12.90;96.60;;;;;;4925701;29;20052;-86
2021/05/03 17:52:37;;;;;;;8.63;1.90;;;12.90;96.60;;;;;;4931031;29;20056;-86
2021/05/03 17:55:05;;;;;;;7.68;1.38;;;12.80;96.60;;;;;;4935409;29;20048;-86
2021/05/03 17:57:31;;;;;;;8.02;1.58;;;12.80;97.00;;;;;;4931213;29;20052;-90
2021/05/03 17:59:58;;;;;;;9.18;1.27;;;12.70;97.20;;;;;;4937277;29;20051;-90
2021/05/03 18:02:24;;;;;;;9.95;1.50;;;12.70;97.40;;;;;;4938370;28;20055;-84
2021/05/03 18:04:51;;;;;;;13.75;6.25;;;12.70;97.60;;;;;;4932091;29;20055;-89
2021/05/03 18:07:18;;;;;;;12.20;2.33;;;12.70;97.50;;;;;;4929711;28;20062;-88
2021/05/03 18:09:46;;;;;;;15.73;5.20;;;12.70;97.60;;;;;;4932073;29;20495;-87
2021/05/03 18:12:12;;;;;;;12.00;4.18;;;12.60;97.50;;;;;;4927923;29;20063;-84
2021/05/03 18:14:38;;;;;;;6.60;2.10;;;12.60;97.50;;;;;;4928063;29;20170;-87
2021/05/03 18:17:05;;;;;;;6.72;1.42;;;12.50;97.60;;;;;;4927984;29;20468;-88
2021/05/03 18:19:32;;;;;;;8.02;2.95;;;12.50;97.80;;;;;;4930805;29;20047;-88
2021/05/03 18:22:03;;;;;;;9.30;2.60;;;12.50;98.00;;;;;;4931574;29;20067;-87
2021/05/03 18:24:31;;;;;;;4.78;2.10;;;12.40;98.10;;;;;;4930336;29;20055;-88
2021/05/03 18:27:03;;;;;;;8.52;3.20;;;12.50;98.20;;;;;;4932818;29;20062;-88
2021/05/03 18:29:30;;;;;;;20.35;6.80;;;12.40;98.30;;;;;;4928431;29;20052;-89
2021/05/03 18:31:57;;;;;;;16.55;6.70;;;12.40;98.50;;;;;;4929431;29;20507;-89
2021/05/03 18:34:24;;;;;;;8.80;2.53;;;12.30;98.70;;;;;;4929723;29;20135;-86
2021/05/03 18:36:51;;;;;;;10.88;4.22;;;12.40;98.90;;;;;;4933553;29;20055;-87
2021/05/03 18:39:24;;;;;;;12.20;1.90;;;12.30;99.00;;;;;;4929857;29;20059;-88
2021/05/03 18:41:51;;;;;;;13.63;2.63;;;12.30;99.40;;;;;;4932745;29;20044;-90
2021/05/03 18:44:19;;;;;;;4.93;1.90;;;12.30;99.60;;;;;;4927144;29;20133;-87
2021/05/03 18:46:47;;;;;;;6.38;1.60;;;12.20;99.70;;;;;;4932929;29;20506;-88
2021/05/03 18:49:21;;;;;;;5.75;1.73;;;12.20;99.90;;;;;;4927660;29;20423;-88
2021/05/03 18:51:48;;;;;;;9.40;2.00;;;12.20;99.90;;;;;;4933338;29;20044;-89
2021/05/03 18:54:15;;;;;;;6.22;1.67;;;12.20;99.90;;;;;;4930546;29;20051;-88
2021/05/03 18:56:42;;;;;;;8.48;2.03;;;12.20;99.90;;;;;;4932046;29;20326;-86
2021/05/03 18:59:09;;;;;;;8.00;1.70;;;12.20;99.90;;;;;;4925833;29;20075;-87
2021/05/03 19:01:36;;;;;;;8.48;1.73;;;12.20;99.90;;;;;;4931636;29;20106;-87
2021/05/03 19:04:04;;;;;;;8.60;1.77;;;12.10;99.90;;;;;;4930555;28;20058;-90
2021/05/03 19:06:31;;;;;;;8.23;2.00;;;12.20;99.90;;;;;;4928610;29;20119;-88
2021/05/03 19:08:58;;;;;;;10.02;2.33;;;12.10;99.90;;;;;;4931327;29;20063;-89
2021/05/03 19:11:25;;;;;;;14.93;1.80;;;12.10;99.90;;;;;;4925889;29;20055;-89
2021/05/03 19:13:54;;;;;;;8.48;1.65;;;12.10;99.90;;;;;;4927726;29;20059;-88
2021/05/03 19:16:23;;;;;;;10.48;2.03;;;12.10;99.90;;;;;;4928119;29;20107;-89
2021/05/03 19:18:50;;;;;;;10.15;2.80;;;12.10;99.90;;;;;;4924721;29;20063;-86
2021/05/03 19:21:16;;;;;;;9.68;2.25;;;12.10;99.90;;;;;;4929285;29;20070;-87
2021/05/03 19:23:43;;;;;;;7.68;2.45;;;12.10;99.90;;;;;;4926147;29;20114;-89
2021/05/03 19:26:09;;;;;;;9.32;2.30;;;12.10;99.90;;;;;;4928784;29;20052;-87
2021/05/03 19:28:36;;;;;;;12.23;2.53;;;12.10;99.90;;;;;;4928310;29;20095;-87
2021/05/03 19:31:16;;;;;;;9.25;2.20;;;12.00;99.90;;;;;;4926111;29;20048;-89
2021/05/03 19:33:43;;;;;;;6.68;1.90;;;12.10;99.90;;;;;;4927555;29;20039;-87
2021/05/03 19:36:10;;;;;;;11.38;2.20;;;12.00;99.90;;;;;;4925868;29;20043;-90
2021/05/03 19:38:36;;;;;;;9.57;2.72;;;12.00;99.90;;;;;;4926689;29;20051;-87
2021/05/03 19:41:03;;;;;;;7.15;2.22;;;12.10;99.90;;;;;;4924758;29;20051;-89
2021/05/03 19:43:31;;;;;;;9.30;1.70;;;12.00;99.90;;;;;;4926593;29;20054;-89
2021/05/03 19:46:03;;;;;;;9.68;2.50;;;12.00;99.90;;;;;;4927997;29;20056;-87
2021/05/03 19:48:35;;;;;;;12.30;2.60;;;12.00;99.90;;;;;;4928080;29;20043;-87
2021/05/03 19:51:10;;;;;;;10.68;2.95;;;12.00;99.90;;;;;;4927659;29;20099;-89
2021/05/03 19:53:55;;;;;;;11.80;2.88;;;12.00;99.90;;;;;;4925473;29;20048;-89
2021/05/03 20:04:18;;;;;;;11.07;3.05;;;12.00;99.90;;;;;;4931114;29;20051;-90
2021/05/03 20:06:44;;;;;;;10.60;2.83;;;12.00;99.90;;;;;;4930293;29;20051;-90
2021/05/03 20:09:11;;;;;;;17.20;4.75;;;12.00;99.90;;;;;;4929733;29;20051;-89
2021/05/03 20:11:37;;;;;;;14.25;4.00;;;12.00;99.90;;;;;;4930716;29;20050;-89
2021/05/03 20:14:07;;;;;;;21.42;6.95;;;12.00;99.90;;;;;;4930335;29;20106;-88
2021/05/03 20:16:34;;;;;;;12.75;2.47;;;12.00;99.90;;;;;;4933640;29;20444;-89
2021/05/03 20:19:10;;;;;;;21.38;3.53;;;12.00;99.90;;;;;;4935455;29;20067;-89
2021/05/03 20:21:37;;;;;;;10.95;3.33;;;11.90;99.90;;;;;;4932999;29;20554;-88
2021/05/03 20:24:04;;;;;;;17.77;4.72;;;11.90;99.90;;;;;;4934484;29;20047;-89
2021/05/03 20:26:30;;;;;;;18.67;4.60;;;11.90;99.90;;;;;;4934258;29;20051;-88
2021/05/03 20:28:59;;;;;;;18.13;3.97;;;11.90;99.90;;;;;;4934946;29;20043;-87
2021/05/03 20:31:25;;;;;;;;;;;11.80;99.90;;;;;;4933318;29;20048;-85
2021/05/03 20:41:27;;;;;;;22.13;3.30;;;11.50;99.90;;;;;;4936607;29;20043;-88
2021/05/03 20:43:53;;;;;;;13.55;3.05;;;11.50;99.90;;;;;;4935740;29;20043;-88
2021/05/03 20:46:22;;;;;;;15.75;3.22;;;11.40;99.90;;;;;;4935411;29;20054;-87
2021/05/03 20:48:59;;;;;;;15.63;2.67;;;11.40;99.90;;;;;;4924134;29;20075;-89
2021/05/03 20:51:25;;;;;;;13.77;2.85;;;11.30;99.90;;;;;;4933456;29;20428;-90
2021/05/03 20:53:52;;;;;;;14.85;3.00;;;11.30;99.90;;;;;;4934875;29;20051;-90
2021/05/03 20:56:18;;;;;;;16.50;3.20;;;11.20;99.90;;;;;;4935296;29;20044;-87
2021/05/03 20:58:45;;;;;;;14.25;3.47;;;11.20;99.90;;;;;;4932364;29;20055;-91
2021/05/03 21:01:19;;;;;;;16.55;3.30;;;11.20;99.90;;;;;;4933960;29;20055;-88
2021/05/03 21:03:46;;;;;;;16.23;2.80;;;11.20;99.90;;;;;;4928077;29;20084;-85
2021/05/03 21:06:12;;;;;;;16.33;3.28;;;11.20;99.90;;;;;;4930260;29;20055;-88
2021/05/03 21:08:39;;;;;;;19.25;2.58;;;11.20;99.90;;;;;;4935195;29;20075;-88
2021/05/03 21:11:23;;;;;;;17.60;2.80;;;11.20;99.90;;;;;;4935269;29;20154;-87
2021/05/03 21:13:51;;;;;;;13.07;3.17;;;11.20;99.90;;;;;;4933635;29;20479;-86
2021/05/03 21:16:18;;;;;;;14.20;2.63;;;11.20;99.90;;;;;;4932356;29;20052;-88
2021/05/03 21:18:45;;;;;;;17.05;3.10;;;11.20;99.90;;;;;;4917581;29;20044;-88
2021/05/03 21:21:12;;;;;;;16.83;3.22;;;11.30;99.90;;;;;;4918226;29;20052;-89
2021/05/03 21:23:39;;;;;;;19.23;3.67;;;11.30;99.90;;;;;;4935658;29;20103;-90
2021/05/03 21:26:05;;;;;;;15.02;3.65;;;11.40;99.90;;;;;;4930510;29;20467;-87
2021/05/03 21:28:33;;;;;;;19.98;3.50;;;11.40;99.90;;;;;;4932447;29;20483;-88
2021/05/03 21:30:59;;;;;;;14.20;3.20;;;11.40;99.90;;;;;;4916559;29;20052;-88
2021/05/03 21:33:27;;;;;;;12.45;2.92;;;11.40;99.90;;;;;;4925421;28;20067;-89
2021/05/03 21:35:54;;;;;;;18.45;3.28;;;11.50;99.90;;;;;;4936633;28;20052;-88
2021/05/03 21:38:20;;;;;;;16.33;3.58;;;11.50;99.90;;;;;;4935255;29;20095;-88
2021/05/03 21:40:47;;;;;;;18.58;3.47;;;11.50;99.90;;;;;;4936844;29;20087;-89
2021/05/03 21:43:14;;;;;;;15.23;2.75;;;11.60;99.90;;;;;;4935328;29;20102;-88